sensor_id;sensor_type;location;lat;lon;timestamp;pressure;altitude;pressure_sealevel;temperature;humidity
73085;BME280;62974;49.460;10.892;2022-09-27T00:02:22;96085.91;;;11.84;79.56
73085;BME280;62974;49.460;10.892;2022-09-27T00:04:49;96070.72;;;11.94;79.79
73085;BME280;62974;49.460;10.892;2022-09-27T00:07:18;96076.72;;;11.80;80.59
73085;BME280;62974;49.460;10.892;2022-09-27T00:09:45;96073.81;;;11.64;81.88
73085;BME280;62974;49.460;10.892;2022-09-27T00:12:13;96065.81;;;11.69;81.02
73085;BME280;62974;49.460;10.892;2022-09-27T00:14:40;96070.47;;;11.74;81.53
73085;BME280;62974;49.460;10.892;2022-09-27T00:17:09;96071.63;;;11.83;80.84
73085;BME280;62974;49.460;10.892;2022-09-27T00:19:37;96067.22;;;11.94;79.94
73085;BME280;62974;49.460;10.892;2022-09-27T00:22:04;96067.13;;;11.89;80.90
73085;BME280;62974;49.460;10.892;2022-09-27T00:24:32;96055.56;;;11.88;79.88
73085;BME280;62974;49.460;10.892;2022-09-27T00:26:59;96053.97;;;11.70;81.05
73085;BME280;62974;49.460;10.892;2022-09-27T00:29:27;96057.16;;;11.67;81.36
73085;BME280;62974;49.460;10.892;2022-09-27T00:31:55;96044.03;;;11.71;81.99
73085;BME280;62974;49.460;10.892;2022-09-27T00:34:24;96041.81;;;11.85;80.47
73085;BME280;62974;49.460;10.892;2022-09-27T00:36:52;96045.31;;;11.85;80.37
73085;BME280;62974;49.460;10.892;2022-09-27T00:39:20;96039.88;;;11.58;81.59
73085;BME280;62974;49.460;10.892;2022-09-27T00:41:48;96031.28;;;11.61;81.91
73085;BME280;62974;49.460;10.892;2022-09-27T00:44:57;96028.00;;;11.54;82.55
73085;BME280;62974;49.460;10.892;2022-09-27T00:47:30;96021.72;;;11.49;82.78
73085;BME280;62974;49.460;10.892;2022-09-27T00:50:04;96023.38;;;11.71;80.70
73085;BME280;62974;49.460;10.892;2022-09-27T00:52:39;96017.66;;;11.68;81.24
73085;BME280;62974;49.460;10.892;2022-09-27T00:55:13;96017.47;;;11.74;80.93
73085;BME280;62974;49.460;10.892;2022-09-27T00:57:44;96016.28;;;11.44;82.80
73085;BME280;62974;49.460;10.892;2022-09-27T01:00:13;96012.41;;;11.56;81.69
73085;BME280;62974;49.460;10.892;2022-09-27T01:02:43;96021.38;;;11.67;81.04
73085;BME280;62974;49.460;10.892;2022-09-27T01:05:15;96014.72;;;11.48;81.86
73085;BME280;62974;49.460;10.892;2022-09-27T01:07:43;96014.41;;;11.22;83.26
73085;BME280;62974;49.460;10.892;2022-09-27T01:10:11;96007.91;;;11.40;82.32
73085;BME280;62974;49.460;10.892;2022-09-27T01:12:46;96005.56;;;11.27;82.21
73085;BME280;62974;49.460;10.892;2022-09-27T01:15:23;96002.59;;;11.45;81.89
73085;BME280;62974;49.460;10.892;2022-09-27T01:18:02;95996.50;;;11.55;80.86
73085;BME280;62974;49.460;10.892;2022-09-27T01:20:58;96005.16;;;11.57;80.97
73085;BME280;62974;49.460;10.892;2022-09-27T01:23:44;96001.81;;;11.28;81.91
73085;BME280;62974;49.460;10.892;2022-09-27T01:26:21;96003.47;;;11.29;82.38
73085;BME280;62974;49.460;10.892;2022-09-27T01:28:57;95995.63;;;11.27;82.25
73085;BME280;62974;49.460;10.892;2022-09-27T01:31:34;95993.53;;;11.29;82.05
73085;BME280;62974;49.460;10.892;2022-09-27T01:34:10;95986.28;;;11.30;82.16
73085;BME280;62974;49.460;10.892;2022-09-27T01:36:46;95991.59;;;11.25;82.21
73085;BME280;62974;49.460;10.892;2022-09-27T01:39:23;95983.38;;;11.15;82.77
73085;BME280;62974;49.460;10.892;2022-09-27T01:42:00;95980.09;;;11.29;82.59
73085;BME280;62974;49.460;10.892;2022-09-27T01:44:32;95982.59;;;11.36;81.92
73085;BME280;62974;49.460;10.892;2022-09-27T01:47:06;95974.44;;;11.31;82.31
73085;BME280;62974;49.460;10.892;2022-09-27T01:49:41;95976.47;;;11.41;81.93
73085;BME280;62974;49.460;10.892;2022-09-27T01:52:14;95965.59;;;11.52;81.03
73085;BME280;62974;49.460;10.892;2022-09-27T01:54:46;95966.84;;;11.45;82.14
73085;BME280;62974;49.460;10.892;2022-09-27T01:57:19;95964.78;;;11.30;82.88
73085;BME280;62974;49.460;10.892;2022-09-27T01:59:51;95956.69;;;11.52;80.78
73085;BME280;62974;49.460;10.892;2022-09-27T02:02:25;95960.78;;;11.54;81.30
73085;BME280;62974;49.460;10.892;2022-09-27T02:04:55;95952.03;;;11.42;82.10
73085;BME280;62974;49.460;10.892;2022-09-27T02:07:28;95954.16;;;11.40;82.44
73085;BME280;62974;49.460;10.892;2022-09-27T02:10:02;95951.31;;;11.52;81.35
73085;BME280;62974;49.460;10.892;2022-09-27T02:12:34;95948.63;;;11.52;81.97
73085;BME280;62974;49.460;10.892;2022-09-27T02:15:09;95949.44;;;11.52;81.35
73085;BME280;62974;49.460;10.892;2022-09-27T02:17:41;95950.47;;;11.46;81.96
73085;BME280;62974;49.460;10.892;2022-09-27T02:20:14;95944.06;;;11.52;81.30
73085;BME280;62974;49.460;10.892;2022-09-27T02:22:48;95942.66;;;11.23;83.72
73085;BME280;62974;49.460;10.892;2022-09-27T02:25:19;95940.72;;;11.40;82.58
73085;BME280;62974;49.460;10.892;2022-09-27T02:27:54;95937.94;;;11.35;83.13
73085;BME280;62974;49.460;10.892;2022-09-27T02:30:23;95938.91;;;11.46;82.10
73085;BME280;62974;49.460;10.892;2022-09-27T02:32:52;95935.19;;;11.52;81.35
73085;BME280;62974;49.460;10.892;2022-09-27T02:35:23;95926.63;;;11.55;80.97
73085;BME280;62974;49.460;10.892;2022-09-27T02:37:51;95923.91;;;11.50;81.66
73085;BME280;62974;49.460;10.892;2022-09-27T02:40:20;95923.91;;;11.50;81.80
73085;BME280;62974;49.460;10.892;2022-09-27T02:42:48;95933.69;;;11.39;82.70
73085;BME280;62974;49.460;10.892;2022-09-27T02:45:17;95927.78;;;11.37;82.09
73085;BME280;62974;49.460;10.892;2022-09-27T02:47:58;95928.91;;;11.41;82.84
73085;BME280;62974;49.460;10.892;2022-09-27T02:50:59;95930.84;;;11.46;82.21
73085;BME280;62974;49.460;10.892;2022-09-27T02:53:39;95922.34;;;11.54;81.25
73085;BME280;62974;49.460;10.892;2022-09-27T02:56:13;95920.34;;;11.44;82.30
73085;BME280;62974;49.460;10.892;2022-09-27T02:58:50;95920.09;;;11.46;81.94
73085;BME280;62974;49.460;10.892;2022-09-27T03:01:26;95916.81;;;11.44;82.29
73085;BME280;62974;49.460;10.892;2022-09-27T03:04:03;95913.38;;;11.48;82.25
73085;BME280;62974;49.460;10.892;2022-09-27T03:06:34;95916.53;;;11.40;83.04
73085;BME280;62974;49.460;10.892;2022-09-27T03:09:03;95919.22;;;11.40;82.15
73085;BME280;62974;49.460;10.892;2022-09-27T03:11:31;95917.88;;;11.43;82.28
73085;BME280;62974;49.460;10.892;2022-09-27T03:13:58;95915.19;;;11.43;82.43
73085;BME280;62974;49.460;10.892;2022-09-27T03:16:34;95910.91;;;11.42;82.94
73085;BME280;62974;49.460;10.892;2022-09-27T03:19:03;95917.78;;;11.32;82.45
73085;BME280;62974;49.460;10.892;2022-09-27T03:21:31;95905.72;;;11.35;82.59
73085;BME280;62974;49.460;10.892;2022-09-27T03:23:58;95908.97;;;11.37;82.62
73085;BME280;62974;49.460;10.892;2022-09-27T03:26:26;95910.59;;;11.38;82.66
73085;BME280;62974;49.460;10.892;2022-09-27T03:28:54;95902.84;;;11.42;82.52
73085;BME280;62974;49.460;10.892;2022-09-27T03:31:21;95909.06;;;11.47;82.31
73085;BME280;62974;49.460;10.892;2022-09-27T03:33:49;95919.44;;;11.39;82.88
73085;BME280;62974;49.460;10.892;2022-09-27T03:36:18;95913.28;;;11.38;82.72
73085;BME280;62974;49.460;10.892;2022-09-27T03:38:45;95914.13;;;11.44;82.17
73085;BME280;62974;49.460;10.892;2022-09-27T03:41:13;95902.88;;;11.47;81.65
73085;BME280;62974;49.460;10.892;2022-09-27T03:43:40;95901.00;;;11.47;82.19
73085;BME280;62974;49.460;10.892;2022-09-27T03:46:08;95903.69;;;11.47;82.12
73085;BME280;62974;49.460;10.892;2022-09-27T03:48:36;95899.78;;;11.33;83.40
73085;BME280;62974;49.460;10.892;2022-09-27T03:51:03;95898.72;;;11.12;85.02
73085;BME280;62974;49.460;10.892;2022-09-27T03:53:32;95903.97;;;11.24;84.38
73085;BME280;62974;49.460;10.892;2022-09-27T03:56:00;95898.00;;;11.17;84.72
73085;BME280;62974;49.460;10.892;2022-09-27T03:58:28;95897.78;;;11.23;84.39
73085;BME280;62974;49.460;10.892;2022-09-27T04:00:56;95896.53;;;11.31;83.64
73085;BME280;62974;49.460;10.892;2022-09-27T04:03:23;95891.78;;;11.38;84.12
73085;BME280;62974;49.460;10.892;2022-09-27T04:05:52;95886.97;;;11.40;82.79
73085;BME280;62974;49.460;10.892;2022-09-27T04:08:20;95885.31;;;11.39;83.10
73085;BME280;62974;49.460;10.892;2022-09-27T04:10:50;95895.84;;;11.41;82.64
73085;BME280;62974;49.460;10.892;2022-09-27T04:13:18;95888.28;;;11.16;85.57
73085;BME280;62974;49.460;10.892;2022-09-27T04:15:45;95897.41;;;11.15;85.46
73085;BME280;62974;49.460;10.892;2022-09-27T04:18:17;95898.97;;;11.11;86.22
73085;BME280;62974;49.460;10.892;2022-09-27T04:20:45;95899.56;;;11.13;85.62
73085;BME280;62974;49.460;10.892;2022-09-27T04:23:12;95913.59;;;10.76;88.53
73085;BME280;62974;49.460;10.892;2022-09-27T04:25:40;95916.78;;;10.57;88.31
73085;BME280;62974;49.460;10.892;2022-09-27T04:28:09;95920.84;;;10.59;88.66
73085;BME280;62974;49.460;10.892;2022-09-27T04:30:37;95924.22;;;10.50;89.38
73085;BME280;62974;49.460;10.892;2022-09-27T04:33:04;95933.81;;;10.29;89.50
73085;BME280;62974;49.460;10.892;2022-09-27T04:35:32;95929.69;;;10.38;88.97
73085;BME280;62974;49.460;10.892;2022-09-27T04:38:28;95933.22;;;10.44;87.69
73085;BME280;62974;49.460;10.892;2022-09-27T04:40:56;95935.03;;;10.21;88.21
73085;BME280;62974;49.460;10.892;2022-09-27T04:43:28;95936.19;;;10.42;87.75
73085;BME280;62974;49.460;10.892;2022-09-27T04:45:56;95927.50;;;10.35;87.27
73085;BME280;62974;49.460;10.892;2022-09-27T04:48:24;95933.22;;;10.60;86.12
73085;BME280;62974;49.460;10.892;2022-09-27T04:50:55;95932.56;;;10.70;85.14
73085;BME280;62974;49.460;10.892;2022-09-27T04:53:23;95931.59;;;10.59;85.99
73085;BME280;62974;49.460;10.892;2022-09-27T04:55:52;95933.28;;;10.65;85.39
73085;BME280;62974;49.460;10.892;2022-09-27T04:58:19;95936.13;;;10.75;84.76
73085;BME280;62974;49.460;10.892;2022-09-27T05:00:49;95938.16;;;10.68;85.16
73085;BME280;62974;49.460;10.892;2022-09-27T05:03:19;95942.72;;;10.51;85.56
73085;BME280;62974;49.460;10.892;2022-09-27T05:05:47;95944.75;;;10.77;84.79
73085;BME280;62974;49.460;10.892;2022-09-27T05:08:15;95945.34;;;10.63;85.31
73085;BME280;62974;49.460;10.892;2022-09-27T05:10:43;95946.13;;;10.80;83.96
73085;BME280;62974;49.460;10.892;2022-09-27T05:13:10;95947.13;;;10.96;82.82
73085;BME280;62974;49.460;10.892;2022-09-27T05:15:38;95948.91;;;10.68;84.59
73085;BME280;62974;49.460;10.892;2022-09-27T05:18:07;95947.88;;;10.91;83.71
73085;BME280;62974;49.460;10.892;2022-09-27T05:20:35;95956.00;;;10.96;83.17
73085;BME280;62974;49.460;10.892;2022-09-27T05:23:03;95957.47;;;10.87;83.87
73085;BME280;62974;49.460;10.892;2022-09-27T05:25:31;95960.13;;;10.82;84.13
73085;BME280;62974;49.460;10.892;2022-09-27T05:27:59;95961.56;;;10.90;83.84
73085;BME280;62974;49.460;10.892;2022-09-27T05:30:27;95963.84;;;10.81;84.02
73085;BME280;62974;49.460;10.892;2022-09-27T05:32:55;95963.97;;;10.69;85.22
73085;BME280;62974;49.460;10.892;2022-09-27T05:35:30;95968.75;;;10.67;85.05
73085;BME280;62974;49.460;10.892;2022-09-27T05:37:59;95972.81;;;10.87;84.74
73085;BME280;62974;49.460;10.892;2022-09-27T05:40:27;95973.16;;;10.95;83.17
73085;BME280;62974;49.460;10.892;2022-09-27T05:43:07;95973.34;;;10.89;84.57
73085;BME280;62974;49.460;10.892;2022-09-27T05:45:34;95977.38;;;10.86;84.36
73085;BME280;62974;49.460;10.892;2022-09-27T05:48:02;95971.56;;;10.94;84.01
73085;BME280;62974;49.460;10.892;2022-09-27T05:50:31;95977.75;;;10.95;83.94
73085;BME280;62974;49.460;10.892;2022-09-27T05:52:59;95979.88;;;10.76;84.68
73085;BME280;62974;49.460;10.892;2022-09-27T05:55:27;95985.34;;;10.64;86.48
73085;BME280;62974;49.460;10.892;2022-09-27T05:57:56;95987.38;;;10.74;85.78
73085;BME280;62974;49.460;10.892;2022-09-27T06:00:25;95990.78;;;10.86;84.48
73085;BME280;62974;49.460;10.892;2022-09-27T06:02:54;95991.63;;;10.70;86.28
73085;BME280;62974;49.460;10.892;2022-09-27T06:05:23;95983.63;;;10.75;85.60
73085;BME280;62974;49.460;10.892;2022-09-27T06:07:57;95989.88;;;10.80;84.57
73085;BME280;62974;49.460;10.892;2022-09-27T06:10:25;95992.16;;;10.89;85.24
73085;BME280;62974;49.460;10.892;2022-09-27T06:12:58;95992.38;;;10.87;85.03
73085;BME280;62974;49.460;10.892;2022-09-27T06:15:26;95991.84;;;10.85;85.19
73085;BME280;62974;49.460;10.892;2022-09-27T06:17:54;96000.63;;;10.80;85.51
73085;BME280;62974;49.460;10.892;2022-09-27T06:20:22;96000.44;;;10.87;84.88
73085;BME280;62974;49.460;10.892;2022-09-27T06:22:49;96008.78;;;10.52;87.39
73085;BME280;62974;49.460;10.892;2022-09-27T06:25:20;96005.44;;;10.45;87.45
73085;BME280;62974;49.460;10.892;2022-09-27T06:27:48;96007.00;;;10.58;86.82
73085;BME280;62974;49.460;10.892;2022-09-27T06:30:15;96016.91;;;10.41;88.02
73085;BME280;62974;49.460;10.892;2022-09-27T06:32:45;96019.50;;;10.52;87.19
73085;BME280;62974;49.460;10.892;2022-09-27T06:35:13;96023.00;;;10.53;87.44
73085;BME280;62974;49.460;10.892;2022-09-27T06:37:41;96032.13;;;10.35;88.60
73085;BME280;62974;49.460;10.892;2022-09-27T06:40:09;96028.38;;;10.53;87.86
73085;BME280;62974;49.460;10.892;2022-09-27T06:42:37;96024.06;;;10.52;87.95
73085;BME280;62974;49.460;10.892;2022-09-27T06:45:06;96028.63;;;10.34;88.55
73085;BME280;62974;49.460;10.892;2022-09-27T06:47:34;96043.31;;;10.32;89.01
73085;BME280;62974;49.460;10.892;2022-09-27T06:50:02;96034.63;;;10.25;88.90
73085;BME280;62974;49.460;10.892;2022-09-27T06:52:31;96037.88;;;10.27;88.84
73085;BME280;62974;49.460;10.892;2022-09-27T06:55:00;96047.38;;;10.18;89.23
73085;BME280;62974;49.460;10.892;2022-09-27T06:57:28;96066.25;;;10.23;88.38
73085;BME280;62974;49.460;10.892;2022-09-27T07:00:14;96061.63;;;10.07;89.17
73085;BME280;62974;49.460;10.892;2022-09-27T07:02:53;96072.13;;;9.68;90.85
73085;BME280;62974;49.460;10.892;2022-09-27T07:05:27;96076.72;;;9.84;90.03
73085;BME280;62974;49.460;10.892;2022-09-27T07:07:55;96074.97;;;9.90;89.74
73085;BME280;62974;49.460;10.892;2022-09-27T07:10:24;96079.31;;;10.08;88.50
73085;BME280;62974;49.460;10.892;2022-09-27T07:12:52;96089.00;;;10.09;88.25
73085;BME280;62974;49.460;10.892;2022-09-27T07:15:21;96094.22;;;9.87;88.75
73085;BME280;62974;49.460;10.892;2022-09-27T07:17:54;96091.09;;;10.18;87.07
73085;BME280;62974;49.460;10.892;2022-09-27T07:20:23;96094.75;;;10.01;87.52
73085;BME280;62974;49.460;10.892;2022-09-27T07:22:51;96099.97;;;10.07;87.66
73085;BME280;62974;49.460;10.892;2022-09-27T07:25:19;96102.69;;;9.96;87.81
73085;BME280;62974;49.460;10.892;2022-09-27T07:27:46;96097.47;;;9.89;87.63
73085;BME280;62974;49.460;10.892;2022-09-27T07:30:14;96102.88;;;10.17;87.00
73085;BME280;62974;49.460;10.892;2022-09-27T07:32:44;96103.00;;;10.22;86.22
73085;BME280;62974;49.460;10.892;2022-09-27T07:35:12;96101.09;;;9.95;86.71
73085;BME280;62974;49.460;10.892;2022-09-27T07:37:41;96113.53;;;10.01;87.80
73085;BME280;62974;49.460;10.892;2022-09-27T07:40:10;96102.69;;;9.96;88.06
73085;BME280;62974;49.460;10.892;2022-09-27T07:42:38;96110.72;;;9.96;86.70
73085;BME280;62974;49.460;10.892;2022-09-27T07:45:07;96118.66;;;10.02;87.19
73085;BME280;62974;49.460;10.892;2022-09-27T07:47:37;96117.50;;;9.98;87.88
73085;BME280;62974;49.460;10.892;2022-09-27T07:50:07;96133.06;;;10.24;86.27
73085;BME280;62974;49.460;10.892;2022-09-27T07:52:38;96140.56;;;10.39;85.45
73085;BME280;62974;49.460;10.892;2022-09-27T07:55:07;96135.94;;;10.34;86.02
73085;BME280;62974;49.460;10.892;2022-09-27T07:57:36;96150.50;;;10.39;86.23
73085;BME280;62974;49.460;10.892;2022-09-27T08:00:05;96145.75;;;10.29;87.18
73085;BME280;62974;49.460;10.892;2022-09-27T08:02:33;96156.97;;;10.54;85.46
73085;BME280;62974;49.460;10.892;2022-09-27T08:05:01;96157.63;;;10.33;86.77
73085;BME280;62974;49.460;10.892;2022-09-27T08:07:31;96155.13;;;10.43;86.76
73085;BME280;62974;49.460;10.892;2022-09-27T08:09:59;96166.28;;;10.23;86.91
73085;BME280;62974;49.460;10.892;2022-09-27T08:12:26;96168.03;;;10.29;86.95
73085;BME280;62974;49.460;10.892;2022-09-27T08:14:54;96171.06;;;10.33;87.13
73085;BME280;62974;49.460;10.892;2022-09-27T08:17:23;96167.06;;;10.35;86.96
73085;BME280;62974;49.460;10.892;2022-09-27T08:19:51;96177.47;;;10.32;86.76
73085;BME280;62974;49.460;10.892;2022-09-27T08:22:19;96169.34;;;10.27;86.44
73085;BME280;62974;49.460;10.892;2022-09-27T08:24:48;96168.06;;;10.18;85.91
73085;BME280;62974;49.460;10.892;2022-09-27T08:27:16;96175.44;;;10.39;86.36
73085;BME280;62974;49.460;10.892;2022-09-27T08:29:44;96174.50;;;10.45;85.79
73085;BME280;62974;49.460;10.892;2022-09-27T08:32:13;96185.19;;;10.57;85.26
73085;BME280;62974;49.460;10.892;2022-09-27T08:34:48;96185.97;;;10.69;85.38
73085;BME280;62974;49.460;10.892;2022-09-27T08:37:16;96186.28;;;10.72;85.08
73085;BME280;62974;49.460;10.892;2022-09-27T08:39:43;96199.19;;;10.59;85.13
73085;BME280;62974;49.460;10.892;2022-09-27T08:42:23;96191.31;;;10.41;85.59
73085;BME280;62974;49.460;10.892;2022-09-27T08:45:00;96196.34;;;10.37;85.32
73085;BME280;62974;49.460;10.892;2022-09-27T08:47:34;96198.56;;;10.40;85.20
73085;BME280;62974;49.460;10.892;2022-09-27T08:50:13;96198.81;;;10.39;85.01
73085;BME280;62974;49.460;10.892;2022-09-27T08:52:48;96202.88;;;10.41;84.95
73085;BME280;62974;49.460;10.892;2022-09-27T08:55:21;96203.47;;;10.31;85.33
73085;BME280;62974;49.460;10.892;2022-09-27T08:57:55;96209.00;;;10.25;84.72
73085;BME280;62974;49.460;10.892;2022-09-27T09:00:26;96212.16;;;10.22;85.34
73085;BME280;62974;49.460;10.892;2022-09-27T09:02:55;96221.59;;;10.01;85.21
73085;BME280;62974;49.460;10.892;2022-09-27T09:05:27;96233.72;;;10.04;86.22
73085;BME280;62974;49.460;10.892;2022-09-27T09:08:07;96213.78;;;10.23;85.35
73085;BME280;62974;49.460;10.892;2022-09-27T09:10:47;96217.25;;;10.35;85.65
73085;BME280;62974;49.460;10.892;2022-09-27T09:14:00;96222.25;;;10.31;85.73
73085;BME280;62974;49.460;10.892;2022-09-27T09:16:43;96231.50;;;10.24;86.48
73085;BME280;62974;49.460;10.892;2022-09-27T09:19:40;96221.00;;;10.11;87.59
73085;BME280;62974;49.460;10.892;2022-09-27T09:22:21;96223.56;;;10.29;87.17
73085;BME280;62974;49.460;10.892;2022-09-27T09:25:06;96223.75;;;10.51;86.23
73085;BME280;62974;49.460;10.892;2022-09-27T09:27:47;96226.22;;;10.41;87.37
73085;BME280;62974;49.460;10.892;2022-09-27T09:30:19;96223.63;;;10.46;86.91
73085;BME280;62974;49.460;10.892;2022-09-27T09:33:03;96226.72;;;10.66;86.59
73085;BME280;62974;49.460;10.892;2022-09-27T09:35:39;96217.94;;;10.42;87.57
73085;BME280;62974;49.460;10.892;2022-09-27T09:38:11;96227.38;;;10.73;86.35
73085;BME280;62974;49.460;10.892;2022-09-27T09:40:45;96224.19;;;10.76;85.75
73085;BME280;62974;49.460;10.892;2022-09-27T09:43:18;96231.75;;;10.62;86.96
73085;BME280;62974;49.460;10.892;2022-09-27T09:45:50;96243.72;;;10.71;87.09
73085;BME280;62974;49.460;10.892;2022-09-27T09:48:27;96228.66;;;10.42;87.62
73085;BME280;62974;49.460;10.892;2022-09-27T09:50:58;96232.00;;;10.49;87.62
73085;BME280;62974;49.460;10.892;2022-09-27T09:53:37;96227.88;;;10.70;86.60
73085;BME280;62974;49.460;10.892;2022-09-27T09:56:11;96229.28;;;10.61;87.25
73085;BME280;62974;49.460;10.892;2022-09-27T09:58:43;96228.47;;;10.89;86.77
73085;BME280;62974;49.460;10.892;2022-09-27T10:01:18;96227.59;;;10.71;86.79
73085;BME280;62974;49.460;10.892;2022-09-27T10:03:47;96228.56;;;10.65;86.67
73085;BME280;62974;49.460;10.892;2022-09-27T10:06:16;96230.81;;;10.57;86.39
73085;BME280;62974;49.460;10.892;2022-09-27T10:08:44;96231.31;;;10.54;85.42
73085;BME280;62974;49.460;10.892;2022-09-27T10:11:19;96235.16;;;10.58;85.56
73085;BME280;62974;49.460;10.892;2022-09-27T10:13:47;96221.72;;;10.58;86.34
73085;BME280;62974;49.460;10.892;2022-09-27T10:16:18;96230.28;;;10.71;85.39
73085;BME280;62974;49.460;10.892;2022-09-27T10:18:46;96226.88;;;10.76;84.82
73085;BME280;62974;49.460;10.892;2022-09-27T10:21:19;96224.59;;;10.68;85.21
73085;BME280;62974;49.460;10.892;2022-09-27T10:24:02;96231.31;;;10.54;85.94
73085;BME280;62974;49.460;10.892;2022-09-27T10:26:31;96228.78;;;10.35;85.92
73085;BME280;62974;49.460;10.892;2022-09-27T10:29:13;96238.06;;;10.56;84.94
73085;BME280;62974;49.460;10.892;2022-09-27T10:31:44;96241.06;;;10.60;85.01
73085;BME280;62974;49.460;10.892;2022-09-27T10:34:19;96240.66;;;10.79;84.05
73085;BME280;62974;49.460;10.892;2022-09-27T10:37:01;96250.44;;;10.57;83.68
73085;BME280;62974;49.460;10.892;2022-09-27T10:39:29;96255.19;;;10.67;84.21
73085;BME280;62974;49.460;10.892;2022-09-27T10:41:57;96255.88;;;10.74;84.01
73085;BME280;62974;49.460;10.892;2022-09-27T10:44:26;96262.28;;;10.73;83.86
73085;BME280;62974;49.460;10.892;2022-09-27T10:46:58;96258.97;;;10.54;84.22
73085;BME280;62974;49.460;10.892;2022-09-27T10:49:29;96279.19;;;10.33;85.34
73085;BME280;62974;49.460;10.892;2022-09-27T10:52:01;96267.66;;;9.98;86.54
73085;BME280;62974;49.460;10.892;2022-09-27T10:54:31;96270.22;;;9.93;85.25
73085;BME280;62974;49.460;10.892;2022-09-27T10:57:01;96266.25;;;10.07;85.74
73085;BME280;62974;49.460;10.892;2022-09-27T10:59:33;96265.91;;;10.15;85.44
73085;BME280;62974;49.460;10.892;2022-09-27T11:02:04;96274.56;;;10.17;85.24
73085;BME280;62974;49.460;10.892;2022-09-27T11:04:34;96265.09;;;10.26;84.13
73085;BME280;62974;49.460;10.892;2022-09-27T11:07:14;96260.34;;;10.57;83.85
73085;BME280;62974;49.460;10.892;2022-09-27T11:09:50;96265.88;;;10.50;84.24
73085;BME280;62974;49.460;10.892;2022-09-27T11:12:18;96262.94;;;10.40;84.66
73085;BME280;62974;49.460;10.892;2022-09-27T11:14:52;96265.63;;;10.40;85.23
73085;BME280;62974;49.460;10.892;2022-09-27T11:17:29;96262.66;;;10.65;84.30
73085;BME280;62974;49.460;10.892;2022-09-27T11:20:11;96267.03;;;10.54;84.77
73085;BME280;62974;49.460;10.892;2022-09-27T11:22:57;96269.13;;;10.41;85.05
73085;BME280;62974;49.460;10.892;2022-09-27T11:25:35;96269.66;;;10.26;85.04
73085;BME280;62974;49.460;10.892;2022-09-27T11:28:11;96272.78;;;10.34;84.61
73085;BME280;62974;49.460;10.892;2022-09-27T11:30:49;96265.91;;;10.39;85.10
73085;BME280;62974;49.460;10.892;2022-09-27T11:33:32;96269.69;;;10.54;85.72
73085;BME280;62974;49.460;10.892;2022-09-27T11:36:06;96274.97;;;10.49;86.03
73085;BME280;62974;49.460;10.892;2022-09-27T11:38:50;96267.22;;;10.64;86.17
73085;BME280;62974;49.460;10.892;2022-09-27T11:41:38;96276.00;;;10.88;87.41
73085;BME280;62974;49.460;10.892;2022-09-27T11:44:20;96274.63;;;10.86;87.34
73085;BME280;62974;49.460;10.892;2022-09-27T11:46:58;96263.06;;;10.45;86.47
73085;BME280;62974;49.460;10.892;2022-09-27T11:49:40;96263.34;;;10.20;85.90
73085;BME280;62974;49.460;10.892;2022-09-27T11:52:29;96264.72;;;10.34;85.23
73085;BME280;62974;49.460;10.892;2022-09-27T11:55:14;96268.94;;;10.30;85.20
73085;BME280;62974;49.460;10.892;2022-09-27T11:57:49;96263.25;;;10.27;85.06
73085;BME280;62974;49.460;10.892;2022-09-27T12:00:19;96250.53;;;10.22;85.48
73085;BME280;62974;49.460;10.892;2022-09-27T12:03:14;96256.34;;;10.19;85.50
73085;BME280;62974;49.460;10.892;2022-09-27T12:05:59;96254.69;;;10.42;85.50
73085;BME280;62974;49.460;10.892;2022-09-27T12:08:45;96257.47;;;10.75;83.90
73085;BME280;62974;49.460;10.892;2022-09-27T12:11:17;96261.78;;;11.04;82.92
73085;BME280;62974;49.460;10.892;2022-09-27T12:13:49;96260.59;;;11.12;82.99
73085;BME280;62974;49.460;10.892;2022-09-27T12:16:19;96253.19;;;11.02;83.92
73085;BME280;62974;49.460;10.892;2022-09-27T12:18:50;96245.31;;;10.84;85.27
73085;BME280;62974;49.460;10.892;2022-09-27T12:21:20;96250.88;;;10.94;84.90
73085;BME280;62974;49.460;10.892;2022-09-27T12:23:50;96243.22;;;11.03;84.99
73085;BME280;62974;49.460;10.892;2022-09-27T12:26:24;96243.19;;;11.14;84.35
73085;BME280;62974;49.460;10.892;2022-09-27T12:28:54;96225.97;;;11.15;84.43
73085;BME280;62974;49.460;10.892;2022-09-27T12:31:28;96231.44;;;11.20;84.87
73085;BME280;62974;49.460;10.892;2022-09-27T12:34:02;96240.56;;;11.19;84.84
73085;BME280;62974;49.460;10.892;2022-09-27T12:36:38;96230.13;;;11.23;85.31
73085;BME280;62974;49.460;10.892;2022-09-27T12:39:16;96233.88;;;11.05;85.00
73085;BME280;62974;49.460;10.892;2022-09-27T12:41:48;96239.91;;;11.12;84.63
73085;BME280;62974;49.460;10.892;2022-09-27T12:44:18;96254.72;;;11.15;84.61
73085;BME280;62974;49.460;10.892;2022-09-27T12:46:54;96244.91;;;10.92;83.28
73085;BME280;62974;49.460;10.892;2022-09-27T12:49:32;96235.97;;;10.87;83.74
73085;BME280;62974;49.460;10.892;2022-09-27T12:52:04;96247.38;;;10.94;84.34
73085;BME280;62974;49.460;10.892;2022-09-27T12:55:02;96249.41;;;10.75;83.55
73085;BME280;62974;49.460;10.892;2022-09-27T12:57:40;96247.03;;;10.90;83.10
73085;BME280;62974;49.460;10.892;2022-09-27T13:00:11;96242.56;;;10.67;83.75
73085;BME280;62974;49.460;10.892;2022-09-27T13:06:02;96238.28;;;10.66;82.69
73085;BME280;62974;49.460;10.892;2022-09-27T13:08:45;96233.63;;;10.62;82.49
73085;BME280;62974;49.460;10.892;2022-09-27T13:11:23;96237.56;;;10.59;82.96
73085;BME280;62974;49.460;10.892;2022-09-27T13:13:54;96237.91;;;10.91;82.99
73085;BME280;62974;49.460;10.892;2022-09-27T13:16:23;96236.19;;;10.85;82.92
73085;BME280;62974;49.460;10.892;2022-09-27T13:18:54;96246.28;;;10.78;82.69
73085;BME280;62974;49.460;10.892;2022-09-27T13:21:56;96229.34;;;10.49;82.17